createdAt,value
2023-09-01T00:00:47.212Z,3.20
2023-09-01T00:03:36.792Z,4.10
2023-09-01T00:06:12.403Z,4.10
2023-09-01T00:08:41.173Z,4.20
2023-09-01T00:11:09.281Z,4.30
2023-09-01T00:13:37.344Z,3.80
2023-09-01T00:16:05.958Z,4.20
2023-09-01T00:18:34.488Z,4.10
2023-09-01T00:21:04.958Z,3.60
2023-09-01T00:23:33.757Z,5.60
2023-09-01T00:26:02.871Z,4.40
2023-09-01T00:28:30.903Z,2.80
2023-09-01T00:31:01.399Z,4.70
2023-09-01T00:33:31.772Z,3.80
2023-09-01T00:36:01.441Z,3.00
2023-09-01T00:38:33.645Z,2.50
2023-09-01T00:41:01.850Z,2.60
2023-09-01T00:43:30.220Z,2.30
2023-09-01T00:45:59.507Z,4.00
2023-09-01T00:48:28.457Z,2.30
2023-09-01T00:50:56.771Z,2.60
2023-09-01T00:53:24.837Z,2.70
2023-09-01T00:55:54.262Z,3.30
2023-09-01T00:58:22.327Z,4.30
2023-09-01T01:00:50.367Z,3.20
2023-09-01T01:03:18.777Z,5.80
2023-09-01T01:06:26.044Z,3.70
2023-09-01T01:09:35.178Z,2.50
2023-09-01T01:12:34.443Z,2.50
2023-09-01T01:15:10.403Z,2.80
2023-09-01T01:17:45.048Z,5.20
2023-09-01T01:20:32.948Z,5.40
2023-09-01T01:23:18.147Z,3.40
2023-09-01T01:25:55.407Z,3.30
2023-09-01T01:28:26.368Z,4.60
2023-09-01T01:30:54.398Z,4.80
2023-09-01T01:33:31.210Z,3.40
2023-09-01T01:36:14.748Z,2.50
2023-09-01T01:38:46.557Z,3.60
2023-09-01T01:41:41.880Z,3.50
2023-09-01T01:44:12.082Z,4.20
2023-09-01T01:46:41.426Z,2.50
2023-09-01T01:49:10.998Z,3.90
2023-09-01T01:51:39.087Z,3.70
2023-09-01T01:54:07.167Z,2.30
2023-09-01T01:56:35.394Z,3.30
2023-09-01T01:59:06.127Z,5.50
2023-09-01T02:01:34.534Z,2.40
2023-09-01T02:04:02.809Z,2.20
2023-09-01T02:09:23.167Z,2.00
2023-09-01T02:11:51.380Z,3.10
2023-09-01T02:14:20.180Z,5.20
2023-09-01T02:16:48.155Z,2.90
2023-09-01T02:19:16.278Z,2.90
2023-09-01T02:21:46.265Z,2.40
2023-09-01T02:24:14.294Z,2.40
2023-09-01T02:26:42.479Z,2.60
2023-09-01T02:29:10.462Z,3.20
2023-09-01T02:31:39.229Z,3.40
2023-09-01T02:34:07.293Z,3.10
2023-09-01T02:36:36.811Z,3.40
2023-09-01T02:39:08.328Z,4.00
2023-09-01T02:41:36.751Z,4.50
2023-09-01T02:44:05.369Z,3.20
2023-09-01T02:46:33.500Z,2.70
2023-09-01T02:49:01.794Z,3.20
2023-09-01T02:51:30.171Z,4.60
2023-09-01T02:53:58.280Z,3.20
2023-09-01T02:56:26.379Z,3.90
2023-09-01T02:58:54.792Z,3.30
2023-09-01T03:01:22.798Z,3.10
2023-09-01T03:03:50.899Z,3.30
2023-09-01T03:06:19.043Z,3.80
2023-09-01T03:08:47.172Z,4.50
2023-09-01T03:11:15.186Z,3.70
2023-09-01T03:13:43.292Z,5.00
2023-09-01T03:16:11.530Z,3.00
2023-09-01T03:18:40.296Z,3.30
2023-09-01T03:21:11.748Z,3.60
2023-09-01T03:23:40.290Z,4.70
2023-09-01T03:26:08.394Z,3.20
2023-09-01T03:28:36.405Z,6.20
2023-09-01T03:31:10.917Z,3.00
2023-09-01T03:33:40.995Z,2.90
2023-09-01T03:36:09.460Z,4.30
2023-09-01T03:38:38.084Z,3.80
2023-09-01T03:41:07.507Z,3.80
2023-09-01T03:43:36.555Z,5.70
2023-09-01T03:46:04.741Z,4.70
2023-09-01T03:48:33.467Z,4.50
2023-09-01T03:51:09.902Z,4.40
2023-09-01T03:53:39.725Z,5.50
2023-09-01T03:56:12.852Z,3.90
2023-09-01T03:58:43.176Z,4.60
2023-09-01T04:01:14.075Z,5.00
2023-09-01T04:03:44.630Z,3.10
2023-09-01T04:06:13.937Z,4.70
2023-09-01T04:08:42.499Z,5.40
2023-09-01T04:11:11.152Z,3.20
2023-09-01T04:13:39.236Z,5.00
2023-09-01T04:16:07.393Z,5.00
2023-09-01T04:18:36.065Z,3.70
2023-09-01T04:21:04.290Z,5.20
2023-09-01T04:23:33.422Z,5.00
2023-09-01T04:26:03.589Z,5.60
2023-09-01T04:28:32.824Z,6.00
2023-09-01T04:31:03.091Z,3.50
2023-09-01T04:33:32.840Z,5.40
2023-09-01T04:36:02.528Z,4.90
2023-09-01T04:38:30.863Z,7.90
2023-09-01T04:41:00.936Z,5.70
2023-09-01T04:43:30.943Z,4.40
2023-09-01T04:45:59.835Z,4.10
2023-09-01T04:48:31.579Z,7.60
2023-09-01T04:51:03.916Z,5.80
2023-09-01T04:53:33.256Z,8.30
2023-09-01T04:56:01.974Z,8.00
2023-09-01T04:58:30.068Z,8.10
2023-09-01T05:00:58.241Z,7.40
2023-09-01T05:03:27.461Z,4.00
2023-09-01T05:05:58.294Z,9.00
2023-09-01T05:08:26.474Z,9.90
2023-09-01T05:10:54.510Z,7.10
2023-09-01T05:13:22.492Z,3.70
2023-09-01T05:15:50.547Z,5.30
2023-09-01T05:18:18.661Z,5.30
2023-09-01T05:20:49.525Z,5.50
2023-09-01T05:23:17.728Z,7.50
2023-09-01T05:25:52.050Z,4.50
2023-09-01T05:28:20.126Z,7.30
2023-09-01T05:30:48.668Z,11.40
2023-09-01T05:33:17.069Z,7.40
2023-09-01T05:35:45.146Z,10.10
2023-09-01T05:38:13.643Z,6.80
2023-09-01T05:40:42.009Z,8.30
2023-09-01T05:43:10.212Z,7.50
2023-09-01T05:45:38.816Z,7.70
2023-09-01T05:48:07.230Z,9.50
2023-09-01T05:50:35.520Z,7.70
2023-09-01T05:53:05.515Z,6.20
2023-09-01T05:55:33.628Z,7.20
2023-09-01T05:58:01.640Z,5.30
2023-09-01T06:00:33.084Z,5.30
2023-09-01T06:03:01.169Z,4.60
2023-09-01T06:05:29.945Z,8.60
2023-09-01T06:07:57.941Z,16.70
2023-09-01T06:10:25.947Z,8.20
2023-09-01T06:12:54.924Z,8.10
2023-09-01T06:15:23.117Z,8.20
2023-09-01T06:17:51.186Z,8.20
2023-09-01T06:20:20.686Z,8.00
2023-09-01T06:22:49.307Z,4.10
2023-09-01T06:25:17.443Z,4.50
2023-09-01T06:27:45.511Z,6.80
2023-09-01T06:30:14.300Z,2.80
2023-09-01T06:32:42.388Z,6.90
2023-09-01T06:35:10.413Z,6.20
2023-09-01T06:37:38.518Z,4.40
2023-09-01T06:40:07.026Z,5.40
2023-09-01T06:42:35.157Z,4.00
2023-09-01T06:45:04.748Z,7.30
2023-09-01T06:47:32.820Z,3.90
2023-09-01T06:50:00.846Z,5.90
2023-09-01T06:52:28.892Z,4.60
2023-09-01T06:54:56.954Z,5.60
2023-09-01T06:57:24.916Z,6.20
2023-09-01T06:59:52.924Z,10.40
2023-09-01T07:02:20.871Z,5.60
2023-09-01T07:04:50.393Z,6.20
2023-09-01T07:07:18.448Z,5.00
2023-09-01T07:09:46.527Z,3.30
2023-09-01T07:12:14.578Z,4.30
2023-09-01T07:14:42.590Z,3.40
2023-09-01T07:17:13.965Z,5.30
2023-09-01T07:19:42.875Z,4.50
2023-09-01T07:22:10.890Z,3.90
2023-09-01T07:24:39.011Z,3.70
2023-09-01T07:27:07.758Z,5.50
2023-09-01T07:29:35.758Z,4.70
2023-09-01T07:32:06.860Z,4.00
2023-09-01T07:34:35.439Z,4.50
2023-09-01T07:37:03.568Z,3.60
2023-09-01T07:39:31.557Z,9.10
2023-09-01T07:41:59.588Z,5.10
2023-09-01T07:44:27.570Z,6.00
2023-09-01T07:46:55.512Z,4.00
2023-09-01T07:49:23.465Z,4.70
2023-09-01T07:51:51.603Z,6.30
2023-09-01T07:54:19.628Z,4.20
2023-09-01T07:56:47.589Z,9.60
2023-09-01T07:59:15.614Z,4.70
2023-09-01T08:01:45.368Z,6.10
2023-09-01T08:04:13.351Z,2.70
2023-09-01T08:06:41.368Z,3.60
2023-09-01T08:09:09.384Z,4.40
2023-09-01T08:11:37.381Z,3.80
2023-09-01T08:14:05.381Z,4.90
2023-09-01T08:16:33.390Z,5.20
2023-09-01T08:19:03.560Z,5.40
2023-09-01T08:21:31.990Z,6.40
2023-09-01T08:23:59.959Z,4.60
2023-09-01T08:26:28.104Z,5.90
2023-09-01T08:28:57.237Z,3.20
2023-09-01T08:31:25.836Z,5.40
2023-09-01T08:33:55.408Z,2.70
2023-09-01T08:36:23.505Z,4.30
2023-09-01T08:38:51.567Z,6.30
2023-09-01T08:41:20.649Z,4.50
2023-09-01T08:43:51.969Z,5.70
2023-09-01T08:46:23.009Z,5.20
2023-09-01T08:48:51.293Z,4.40
2023-09-01T08:51:21.552Z,3.20
2023-09-01T08:53:51.297Z,5.70
2023-09-01T08:56:19.296Z,5.70
2023-09-01T08:58:47.566Z,8.90
2023-09-01T09:01:17.296Z,4.50
2023-09-01T09:03:45.498Z,4.30
2023-09-01T09:06:14.805Z,4.30
2023-09-01T09:08:43.276Z,6.10
2023-09-01T09:11:16.912Z,3.90
2023-09-01T09:13:51.232Z,6.70
2023-09-01T09:16:25.240Z,3.90
2023-09-01T09:18:53.399Z,5.60
2023-09-01T09:21:30.496Z,4.70
2023-09-01T09:26:32.773Z,4.40
2023-09-01T09:29:10.005Z,5.80
2023-09-01T09:31:41.087Z,3.20
2023-09-01T09:34:19.573Z,3.70
2023-09-01T09:36:48.983Z,6.10
2023-09-01T09:39:28.512Z,4.30
2023-09-01T09:41:58.278Z,3.40
2023-09-01T09:44:30.954Z,5.60
2023-09-01T09:46:59.268Z,4.20
2023-09-01T09:49:32.246Z,3.80
2023-09-01T09:52:01.915Z,3.80
2023-09-01T09:54:30.916Z,3.40
2023-09-01T09:57:01.304Z,4.90
2023-09-01T09:59:41.434Z,5.70
2023-09-01T10:02:25.147Z,3.90
2023-09-01T10:04:54.654Z,3.40
2023-09-01T10:07:24.169Z,6.70
2023-09-01T10:09:53.829Z,4.90
2023-09-01T10:12:22.495Z,4.60
2023-09-01T10:14:52.426Z,4.10
2023-09-01T10:17:22.906Z,11.20
2023-09-01T10:19:51.021Z,5.60
2023-09-01T10:22:19.635Z,5.70
2023-09-01T10:25:27.389Z,4.20
2023-09-01T10:28:15.339Z,4.00
2023-09-01T10:30:45.708Z,5.50
2023-09-01T10:33:26.206Z,3.50
2023-09-01T10:35:58.669Z,4.80
2023-09-01T10:38:35.707Z,4.30
2023-09-01T10:41:04.564Z,4.50
2023-09-01T10:43:32.572Z,3.20
2023-09-01T10:46:29.826Z,4.80
2023-09-01T10:49:01.903Z,5.10
2023-09-01T10:51:35.478Z,5.80
2023-09-01T10:54:23.684Z,2.60
2023-09-01T10:57:00.413Z,3.10
2023-09-01T10:59:37.097Z,3.00
2023-09-01T11:02:18.737Z,5.40
2023-09-01T11:04:47.903Z,3.10
2023-09-01T11:07:16.016Z,4.70
2023-09-01T11:09:43.941Z,4.00
2023-09-01T11:12:13.425Z,4.30
2023-09-01T11:15:00.782Z,4.20
2023-09-01T11:17:45.013Z,4.70
2023-09-01T11:20:17.745Z,3.50
2023-09-01T11:22:46.648Z,6.50
2023-09-01T11:25:16.696Z,3.40
2023-09-01T11:27:50.900Z,3.40
2023-09-01T11:30:20.818Z,3.40
2023-09-01T11:32:50.253Z,3.60
2023-09-01T11:35:30.014Z,7.30
2023-09-01T11:37:59.143Z,5.10
2023-09-01T11:40:29.317Z,3.60
2023-09-01T11:42:57.786Z,4.70
2023-09-01T11:45:25.790Z,4.50
2023-09-01T11:47:55.128Z,6.00
2023-09-01T11:50:23.631Z,4.00
2023-09-01T11:52:53.205Z,3.20
2023-09-01T11:55:35.981Z,5.60
2023-09-01T11:58:04.801Z,3.90
2023-09-01T12:00:40.116Z,4.50
2023-09-01T12:03:09.545Z,3.40
2023-09-01T12:05:40.768Z,3.00
2023-09-01T12:08:11.168Z,6.90
2023-09-01T12:10:39.363Z,4.70
2023-09-01T12:13:12.809Z,3.90
2023-09-01T12:16:01.056Z,3.20
2023-09-01T12:18:37.563Z,3.90
2023-09-01T12:21:08.744Z,3.60
2023-09-01T12:23:49.095Z,3.60
2023-09-01T12:26:17.517Z,5.70
2023-09-01T12:28:45.608Z,4.90
2023-09-01T12:31:15.725Z,2.90
2023-09-01T12:33:43.989Z,4.80
2023-09-01T12:36:14.099Z,2.90
2023-09-01T12:38:45.201Z,4.80
2023-09-01T12:41:13.436Z,2.80
2023-09-01T12:43:43.641Z,3.50
2023-09-01T12:46:11.647Z,3.50
2023-09-01T12:48:39.730Z,2.50
2023-09-01T12:51:07.880Z,4.40
2023-09-01T12:53:35.969Z,2.40
2023-09-01T12:56:04.141Z,3.80
2023-09-01T12:58:32.796Z,4.70
2023-09-01T13:01:07.269Z,2.20
2023-09-01T13:03:35.534Z,3.20
2023-09-01T13:06:11.554Z,3.30
2023-09-01T13:08:39.684Z,4.30
2023-09-01T13:11:11.585Z,3.40
2023-09-01T13:13:40.586Z,1.90
2023-09-01T13:16:13.121Z,4.60
2023-09-01T13:18:41.325Z,2.70
2023-09-01T13:21:10.393Z,2.20
2023-09-01T13:23:38.448Z,2.30
2023-09-01T13:26:11.478Z,2.20
2023-09-01T13:28:39.474Z,3.00
2023-09-01T13:31:07.456Z,2.50
2023-09-01T13:33:40.617Z,4.50
2023-09-01T13:38:39.944Z,2.30
2023-09-01T13:41:08.735Z,5.70
2023-09-01T13:43:36.977Z,1.70
2023-09-01T13:46:24.159Z,2.70
2023-09-01T13:48:57.253Z,2.70
2023-09-01T13:51:29.852Z,2.00
2023-09-01T13:53:58.140Z,2.00
2023-09-01T13:56:26.344Z,1.80
2023-09-01T13:58:54.387Z,3.00
2023-09-01T14:01:22.421Z,2.90
2023-09-01T14:03:50.499Z,2.20
2023-09-01T14:06:18.537Z,2.50
2023-09-01T14:08:46.578Z,2.40
2023-09-01T14:11:14.947Z,1.70
2023-09-01T14:13:42.961Z,2.60
2023-09-01T14:16:12.490Z,3.90
2023-09-01T14:18:43.150Z,1.60
2023-09-01T14:21:11.363Z,3.40
2023-09-01T14:23:39.510Z,3.20
2023-09-01T14:26:07.686Z,1.50
2023-09-01T14:28:35.826Z,2.10
2023-09-01T14:31:04.414Z,1.80
2023-09-01T14:33:41.846Z,1.80
2023-09-01T14:38:44.137Z,3.00
2023-09-01T14:41:19.391Z,7.20
2023-09-01T14:43:48.317Z,3.80
2023-09-01T14:46:19.020Z,4.00
2023-09-01T14:48:47.826Z,4.00
2023-09-01T14:51:16.642Z,2.50
2023-09-01T14:53:47.454Z,2.20
2023-09-01T14:56:17.849Z,8.10
2023-09-01T14:58:46.125Z,2.00
2023-09-01T15:01:14.143Z,3.10
2023-09-01T15:03:42.257Z,2.70
2023-09-01T15:06:10.516Z,3.90
2023-09-01T15:08:38.542Z,3.80
2023-09-01T15:11:06.711Z,7.00
2023-09-01T15:13:34.788Z,2.90
2023-09-01T15:16:02.853Z,1.90
2023-09-01T15:18:30.930Z,2.90
2023-09-01T15:21:06.693Z,2.10
2023-09-01T15:23:35.879Z,3.00
2023-09-01T15:26:04.142Z,3.80
2023-09-01T15:28:32.285Z,1.80
2023-09-01T15:31:00.339Z,2.90
2023-09-01T15:33:29.124Z,4.60
2023-09-01T15:36:00.477Z,5.00
2023-09-01T15:38:30.125Z,4.30
2023-09-01T15:41:02.184Z,3.30
2023-09-01T15:43:30.597Z,2.90
2023-09-01T15:45:59.392Z,2.60
2023-09-01T15:48:28.545Z,3.30
2023-09-01T15:50:58.545Z,3.40
2023-09-01T15:53:28.680Z,4.80
2023-09-01T15:55:58.697Z,3.00
2023-09-01T15:58:26.813Z,5.90
2023-09-01T16:01:03.609Z,3.90
2023-09-01T16:03:46.522Z,11.70
2023-09-01T16:06:21.684Z,3.70
2023-09-01T16:08:49.835Z,3.90
2023-09-01T16:11:17.830Z,2.60
2023-09-01T16:13:47.925Z,3.30
2023-09-01T16:16:15.958Z,3.10
2023-09-01T16:18:44.081Z,4.30
2023-09-01T16:21:12.093Z,2.50
2023-09-01T16:23:40.080Z,4.10
2023-09-01T16:26:08.088Z,11.80
2023-09-01T16:28:36.167Z,8.70
2023-09-01T16:31:04.459Z,5.70
2023-09-01T16:33:32.500Z,4.30
2023-09-01T16:36:02.007Z,2.60
2023-09-01T16:38:30.726Z,3.70
2023-09-01T16:41:00.132Z,6.30
2023-09-01T16:43:28.318Z,3.70
2023-09-01T16:45:56.549Z,4.00
2023-09-01T16:48:25.202Z,3.90
2023-09-01T16:50:53.218Z,4.00
2023-09-01T16:53:21.298Z,4.30
2023-09-01T16:55:49.795Z,3.40
2023-09-01T16:58:17.856Z,3.90
2023-09-01T17:00:47.083Z,4.90
2023-09-01T17:03:15.357Z,5.40
2023-09-01T17:05:46.523Z,4.40
2023-09-01T17:08:14.736Z,3.00
2023-09-01T17:10:42.837Z,6.70
2023-09-01T17:13:10.818Z,4.40
2023-09-01T17:15:40.440Z,7.70
2023-09-01T17:18:09.051Z,5.10
2023-09-01T17:20:52.604Z,6.10
2023-09-01T17:23:20.615Z,3.00
2023-09-01T17:25:48.572Z,5.30
2023-09-01T17:28:16.573Z,8.80
2023-09-01T17:30:44.722Z,4.20
2023-09-01T17:33:12.835Z,3.40
2023-09-01T17:35:40.825Z,5.10
2023-09-01T17:38:08.809Z,4.70
2023-09-01T17:40:37.726Z,3.70
2023-09-01T17:43:05.737Z,3.90
2023-09-01T17:45:33.742Z,4.40
2023-09-01T17:48:01.866Z,5.80
2023-09-01T17:50:29.962Z,5.60
2023-09-01T17:52:58.013Z,4.20
2023-09-01T17:55:29.234Z,3.40
2023-09-01T17:57:57.277Z,5.40
2023-09-01T18:00:25.287Z,5.40
2023-09-01T18:02:56.708Z,4.30
2023-09-01T18:05:25.081Z,6.40
2023-09-01T18:07:53.834Z,4.90
2023-09-01T18:10:21.863Z,6.20
2023-09-01T18:12:49.922Z,8.30
2023-09-01T18:15:19.032Z,5.50
2023-09-01T18:17:47.195Z,7.30
2023-09-01T18:20:19.832Z,7.20
2023-09-01T18:22:50.672Z,4.30
2023-09-01T18:25:19.141Z,7.20
2023-09-01T18:27:48.711Z,7.60
2023-09-01T18:30:17.913Z,7.30
2023-09-01T18:32:48.836Z,6.00
2023-09-01T18:35:20.172Z,4.70
2023-09-01T18:37:48.252Z,6.30
2023-09-01T18:40:23.938Z,5.80
2023-09-01T18:42:53.127Z,4.80
2023-09-01T18:45:27.326Z,4.00
2023-09-01T18:47:55.980Z,6.30
2023-09-01T18:50:24.173Z,7.10
2023-09-01T18:52:57.480Z,4.90
2023-09-01T18:55:25.661Z,6.80
2023-09-01T18:57:53.727Z,4.30
2023-09-01T19:00:25.028Z,5.60
2023-09-01T19:02:53.805Z,7.20
2023-09-01T19:05:33.189Z,6.20
2023-09-01T19:08:13.192Z,5.40
2023-09-01T19:10:42.141Z,6.20
2023-09-01T19:13:11.594Z,5.40
2023-09-01T19:15:40.616Z,6.20
2023-09-01T19:18:11.361Z,5.10
2023-09-01T19:20:42.603Z,6.20
2023-09-01T19:23:23.707Z,4.70
2023-09-01T19:25:51.808Z,5.20
2023-09-01T19:28:35.326Z,5.50
2023-09-01T19:31:06.286Z,10.10
2023-09-01T19:33:36.733Z,4.00
2023-09-01T19:36:05.263Z,7.50
2023-09-01T19:38:33.423Z,7.40
2023-09-01T19:41:01.922Z,7.20
2023-09-01T19:43:30.756Z,6.30
2023-09-01T19:46:00.640Z,4.40
2023-09-01T19:48:32.858Z,5.40
2023-09-01T19:51:02.166Z,9.20
2023-09-01T19:53:31.706Z,6.10
2023-09-01T19:56:23.218Z,9.00
2023-09-01T19:58:57.059Z,6.80
2023-09-01T20:01:28.524Z,5.50
2023-09-01T20:03:57.298Z,5.00
2023-09-01T20:06:27.393Z,6.10
2023-09-01T20:09:08.947Z,5.70
2023-09-01T20:11:37.031Z,6.10
2023-09-01T20:14:08.537Z,6.10
2023-09-01T20:16:41.720Z,6.20
2023-09-01T20:19:15.022Z,4.80
2023-09-01T20:24:11.187Z,5.00
2023-09-01T20:26:39.219Z,9.00
2023-09-01T20:29:07.258Z,8.40
2023-09-01T20:31:37.508Z,5.80
2023-09-01T20:34:09.383Z,6.30
2023-09-01T20:36:37.675Z,4.30
2023-09-01T20:39:07.285Z,5.20
2023-09-01T20:41:35.455Z,9.30
2023-09-01T20:44:04.021Z,9.00
2023-09-01T20:46:32.121Z,8.80
2023-09-01T20:49:00.551Z,6.00
2023-09-01T20:51:28.592Z,6.20
2023-09-01T20:53:56.618Z,6.10
2023-09-01T20:56:24.631Z,8.20
2023-09-01T20:58:52.609Z,7.20
2023-09-01T21:01:20.731Z,11.40
2023-09-01T21:03:48.878Z,11.80
2023-09-01T21:06:16.930Z,7.70
2023-09-01T21:08:44.927Z,15.70
2023-09-01T21:11:14.396Z,7.90
2023-09-01T21:13:42.803Z,6.20
2023-09-01T21:16:10.900Z,6.50
2023-09-01T21:18:39.038Z,6.80
2023-09-01T21:21:07.091Z,9.60
2023-09-01T21:23:35.147Z,5.50
2023-09-01T21:26:03.438Z,6.30
2023-09-01T21:28:33.072Z,7.70
2023-09-01T21:31:01.428Z,7.60
2023-09-01T21:33:29.461Z,7.20
2023-09-01T21:35:57.589Z,9.30
2023-09-01T21:38:25.741Z,10.90
2023-09-01T21:40:53.802Z,10.60
2023-09-01T21:43:22.124Z,11.40
2023-09-01T21:45:50.232Z,9.30
2023-09-01T21:48:18.249Z,9.10
2023-09-01T21:50:46.215Z,6.80
2023-09-01T21:53:14.310Z,8.90
2023-09-01T21:55:42.663Z,10.80
2023-09-01T21:58:10.864Z,7.90
2023-09-01T22:00:38.916Z,7.10
2023-09-01T22:03:06.987Z,9.70
2023-09-01T22:05:35.113Z,7.10
2023-09-01T22:08:04.439Z,9.00
2023-09-01T22:10:32.539Z,6.60
2023-09-01T22:13:00.667Z,7.00
2023-09-01T22:15:28.726Z,7.00
2023-09-01T22:17:57.998Z,9.50
2023-09-01T22:20:26.572Z,10.30
2023-09-01T22:22:54.536Z,7.50
2023-09-01T22:25:22.551Z,7.30
2023-09-01T22:27:50.682Z,8.40
2023-09-01T22:30:19.239Z,9.50
2023-09-01T22:32:47.385Z,9.40
2023-09-01T22:35:15.481Z,7.30
2023-09-01T22:37:43.665Z,8.40
2023-09-01T22:40:12.057Z,9.10
2023-09-01T22:42:42.010Z,8.20
2023-09-01T22:45:11.858Z,11.50
2023-09-01T22:47:39.860Z,8.70
2023-09-01T22:50:08.315Z,9.00
2023-09-01T22:52:36.279Z,11.00
2023-09-01T22:55:04.930Z,7.60
2023-09-01T22:57:32.898Z,7.90
2023-09-01T23:00:00.898Z,8.10
2023-09-01T23:02:28.956Z,7.90
2023-09-01T23:04:56.968Z,8.90
2023-09-01T23:07:24.941Z,7.80
2023-09-01T23:09:53.030Z,10.60
2023-09-01T23:12:21.084Z,8.10
2023-09-01T23:14:49.141Z,8.60
2023-09-01T23:17:17.153Z,7.10
2023-09-01T23:19:45.157Z,7.60
2023-09-01T23:22:13.128Z,7.90
2023-09-01T23:24:41.074Z,8.20
2023-09-01T23:27:09.025Z,8.70
2023-09-01T23:29:36.990Z,8.80
2023-09-01T23:32:08.953Z,9.80
2023-09-01T23:34:37.158Z,7.10
2023-09-01T23:37:05.413Z,10.30
2023-09-01T23:39:34.695Z,7.70
2023-09-01T23:42:03.706Z,9.70
2023-09-01T23:44:31.754Z,9.00
2023-09-01T23:46:59.802Z,10.80
2023-09-01T23:49:27.847Z,10.10
2023-09-01T23:51:55.862Z,12.30
2023-09-01T23:54:23.849Z,11.30
2023-09-01T23:56:51.831Z,10.60
2023-09-01T23:59:20.438Z,9.10
